Time;durP1;ratioP1;P1;durP2;ratioP2;P2;SDS_P1;SDS_P2;PMS_P1;PMS_P2;Temp;Humidity;BMP_temperature;BMP_pressure;BME280_temperature;BME280_humidity;BME280_pressure;Samples;Min_cycle;Max_cycle;Signal;HPM_P1;HPM_P2
2022/07/29 00:00:11;;;;;;;;;;;22.40;78.50;;;;;;5076710;28;19973;-63
2022/07/29 00:02:37;;;;;;;;;;;22.50;78.20;;;;;;5077611;28;19924;-63
2022/07/29 00:05:03;;;;;;;;;;;22.40;78.50;;;;;;5075824;28;19924;-63
2022/07/29 00:07:28;;;;;;;;;;;22.00;78.30;;;;;;5073130;28;19924;-62
2022/07/29 00:09:54;;;;;;;;;;;22.60;78.50;;;;;;5074426;28;20393;-62
2022/07/29 00:12:20;;;;;;;;;;;22.10;78.10;;;;;;5084545;28;19963;-63
2022/07/29 00:14:45;;;;;;;;;;;22.20;78.50;;;;;;5092693;28;19950;-63
2022/07/29 00:17:11;;;;;;;;;;;22.40;78.30;;;;;;5087455;28;19924;-62
2022/07/29 00:19:37;;;;;;;;;;;22.20;78.40;;;;;;5064796;28;20003;-63
2022/07/29 00:22:02;;;;;;;;;;;22.20;78.20;;;;;;5077947;28;19925;-63
2022/07/29 00:24:28;;;;;;;;;;;22.30;78.50;;;;;;5073468;28;19925;-62
2022/07/29 00:26:53;;;;;;;;;;;22.00;78.20;;;;;;5080726;28;20389;-63
2022/07/29 00:29:19;;;;;;;;;;;22.20;78.50;;;;;;5069923;28;20343;-62
2022/07/29 00:31:45;;;;;;;;;;;22.40;78.40;;;;;;5091518;28;19931;-62
2022/07/29 00:35:43;;;;;;;;;;;22.20;78.30;;;;;;5059919;28;19924;-62
2022/07/29 00:36:56;;;;;;;;;;;22.20;78.30;;;;;;5082883;28;20392;-63
2022/07/29 00:39:22;;;;;;;;;;;22.40;78.30;;;;;;5073816;28;20025;-63
2022/07/29 00:41:47;;;;;;;;;;;22.50;78.40;;;;;;5076051;28;19979;-62
2022/07/29 00:44:13;;;;;;;;;;;22.20;78.40;;;;;;5089613;28;19924;-62
2022/07/29 00:46:38;;;;;;;;;;;22.30;78.30;;;;;;5089743;28;19925;-62
2022/07/29 00:49:04;;;;;;;;;;;22.30;78.40;;;;;;5094828;28;20011;-62
2022/07/29 00:51:30;;;;;;;;;;;22.30;78.40;;;;;;5108704;28;19924;-63
2022/07/29 00:53:56;;;;;;;;;;;22.60;78.10;;;;;;5084474;28;20389;-63
2022/07/29 00:56:21;;;;;;;;;;;22.30;78.50;;;;;;5074724;28;19924;-62
2022/07/29 00:58:47;;;;;;;;;;;22.30;78.30;;;;;;5092746;28;20490;-64
2022/07/29 01:01:12;;;;;;;;;;;22.00;78.30;;;;;;5076133;28;19982;-62
2022/07/29 01:03:38;;;;;;;;;;;22.50;78.50;;;;;;5084817;28;20286;-63
2022/07/29 01:06:04;;;;;;;;;;;22.40;78.60;;;;;;5075771;28;20401;-62
2022/07/29 01:08:29;;;;;;;;;;;22.10;78.10;;;;;;5092901;28;20007;-63
2022/07/29 01:10:55;;;;;;;;;;;22.30;78.30;;;;;;5086411;28;20447;-62
2022/07/29 01:13:21;;;;;;;;;;;22.50;78.40;;;;;;5089885;28;19924;-62
2022/07/29 01:15:47;;;;;;;;;;;22.20;78.20;;;;;;5067627;28;20286;-62
2022/07/29 01:18:17;;;;;;;;;;;22.30;78.60;;;;;;5068109;28;19967;-63
2022/07/29 01:20:45;;;;;;;;;;;22.40;77.20;;;;;;5074180;28;19931;-63
2022/07/29 01:23:17;;;;;;;;;;;22.10;77.10;;;;;;5093290;28;19931;-63
2022/07/29 01:26:08;;;;;;;;;;;22.10;78.00;;;;;;5105324;28;19969;-62
2022/07/29 01:28:49;;;;;;;;;;;22.30;77.20;;;;;;5089844;28;19931;-63
2022/07/29 01:31:33;;;;;;;;;;;22.40;77.30;;;;;;5095569;28;19924;-63
2022/07/29 01:34:05;;;;;;;;;;;22.30;77.20;;;;;;5090135;28;19924;-62
2022/07/29 01:36:43;;;;;;;;;;;22.50;78.70;;;;;;5075885;28;19930;-62
2022/07/29 01:39:21;;;;;;;;;;;22.10;77.10;;;;;;5112211;28;19928;-63
2022/07/29 01:41:57;;;;;;;;;;;22.50;77.30;;;;;;5096339;28;19924;-62
2022/07/29 01:44:24;;;;;;;;;;;22.10;77.10;;;;;;5070185;28;19925;-62
2022/07/29 01:46:53;;;;;;;;;;;22.30;78.70;;;;;;5078079;28;20386;-63
2022/07/29 01:49:20;;;;;;;;;;;22.10;78.70;;;;;;5077519;28;20369;-62
2022/07/29 01:51:47;;;;;;;;;;;22.40;78.80;;;;;;5080036;28;20267;-62
2022/07/29 01:54:16;;;;;;;;;;;22.20;78.60;;;;;;5076719;28;19924;-62
2022/07/29 01:56:42;;;;;;;;;;;22.30;78.60;;;;;;5078782;28;19932;-64
2022/07/29 01:59:08;;;;;;;;;;;22.20;78.50;;;;;;5071531;28;19928;-62
2022/07/29 02:01:33;;;;;;;;;;;22.40;78.20;;;;;;5088287;28;20381;-62
2022/07/29 02:03:59;;;;;;;;;;;22.30;78.40;;;;;;5078536;28;19924;-63
2022/07/29 02:06:24;;;;;;;;;;;22.20;78.40;;;;;;5088919;28;19932;-63
2022/07/29 02:08:50;;;;;;;;;;;22.20;78.40;;;;;;5075330;28;19931;-62
2022/07/29 02:11:16;;;;;;;;;;;22.00;78.40;;;;;;5075466;28;20290;-63
2022/07/29 02:13:42;;;;;;;;;;;22.40;78.50;;;;;;5094301;28;19925;-63
2022/07/29 02:16:07;;;;;;;;;;;22.50;78.50;;;;;;5084963;28;19928;-62
2022/07/29 02:18:33;;;;;;;;;;;22.40;78.50;;;;;;5091745;28;19924;-63
2022/07/29 02:20:59;;;;;;;;;;;22.50;78.60;;;;;;5068642;28;19974;-63
2022/07/29 02:23:24;;;;;;;;;;;22.10;78.40;;;;;;5095988;28;19970;-63
2022/07/29 02:25:56;;;;;;;;;;;22.20;78.40;;;;;;5077018;28;19924;-63
2022/07/29 02:28:22;;;;;;;;;;;22.30;78.70;;;;;;5065573;28;19928;-62
2022/07/29 02:30:48;;;;;;;;;;;22.60;78.90;;;;;;5094987;28;19928;-62
2022/07/29 02:33:14;;;;;;;;;;;22.30;78.60;;;;;;5075973;28;19924;-63
2022/07/29 02:35:40;;;;;;;;;;;22.30;78.90;;;;;;5069212;28;19921;-62
2022/07/29 02:40:50;;;;;;;;;;;22.20;77.80;;;;;;5075146;28;19925;-63
2022/07/29 02:43:15;;;;;;;;;;;22.30;78.70;;;;;;5075832;28;19977;-64
2022/07/29 02:45:41;;;;;;;;;;;22.40;78.80;;;;;;5051356;28;19929;-62
2022/07/29 02:48:10;;;;;;;;;;;22.30;78.70;;;;;;5058176;28;20020;-62
2022/07/29 02:50:37;;;;;;;;;;;22.30;78.70;;;;;;5081442;28;19982;-63
2022/07/29 02:53:29;;;;;;;;;;;22.20;78.80;;;;;;5080915;28;19924;-63
2022/07/29 02:55:58;;;;;;;;;;;22.40;77.60;;;;;;5074736;28;19924;-62
2022/07/29 02:58:28;;;;;;;;;;;22.20;77.50;;;;;;5094267;28;19928;-63
2022/07/29 03:01:04;;;;;;;;;;;22.30;77.40;;;;;;5091933;28;20332;-63
2022/07/29 03:03:32;;;;;;;;;;;22.20;77.40;;;;;;5093648;28;19930;-63
2022/07/29 03:05:58;;;;;;;;;;;22.20;78.80;;;;;;5095986;28;20344;-62
2022/07/29 03:08:24;;;;;;;;;;;22.40;78.80;;;;;;5094594;28;20019;-62
2022/07/29 03:10:49;;;;;;;;;;;22.30;79.20;;;;;;5078534;28;19924;-62
2022/07/29 03:13:15;;;;;;;;;;;22.40;78.70;;;;;;5087261;28;19924;-63
2022/07/29 03:15:42;;;;;;;;;;;22.50;78.90;;;;;;5091327;28;19925;-63
2022/07/29 03:18:08;;;;;;;;;;;22.10;78.90;;;;;;5057632;28;19928;-63
2022/07/29 03:20:33;;;;;;;;;;;22.40;78.80;;;;;;5081399;28;20356;-62
2022/07/29 03:22:59;;;;;;;;;;;22.10;78.60;;;;;;5104460;28;20439;-63
2022/07/29 03:25:24;;;;;;;;;;;22.30;78.70;;;;;;5095899;28;20397;-63
2022/07/29 03:27:50;;;;;;;;;;;22.30;78.80;;;;;;5070733;28;19938;-64
2022/07/29 03:30:16;;;;;;;;;;;22.20;78.80;;;;;;5069319;28;20390;-63
2022/07/29 03:32:41;;;;;;;;;;;22.20;78.70;;;;;;5059155;28;19924;-63
2022/07/29 03:35:07;;;;;;;;;;;22.30;78.90;;;;;;5058550;28;20019;-62
2022/07/29 03:37:33;;;;;;;;;;;22.20;78.70;;;;;;5077604;28;20297;-63
2022/07/29 03:39:59;;;;;;;;;;;22.10;79.00;;;;;;5109057;28;19924;-62
2022/07/29 03:42:25;;;;;;;;;;;22.20;78.90;;;;;;5082121;28;20382;-63
2022/07/29 03:44:51;;;;;;;;;;;22.20;79.20;;;;;;5084744;28;20277;-63
2022/07/29 03:47:17;;;;;;;;;;;22.10;78.80;;;;;;5102430;28;19924;-63
2022/07/29 03:49:42;;;;;;;;;;;22.30;79.20;;;;;;5111099;28;19928;-63
2022/07/29 03:52:08;;;;;;;;;;;22.40;79.00;;;;;;5070308;28;20370;-62
2022/07/29 03:54:34;;;;;;;;;;;22.20;78.90;;;;;;5055897;28;20455;-62
2022/07/29 03:57:00;;;;;;;;;;;22.20;78.90;;;;;;5090375;28;20050;-63
2022/07/29 03:59:26;;;;;;;;;;;22.30;79.20;;;;;;5086986;28;19925;-62
2022/07/29 04:01:51;;;;;;;;;;;22.50;79.10;;;;;;5089901;28;19931;-63
2022/07/29 04:04:17;;;;;;;;;;;22.20;79.00;;;;;;5092353;28;20294;-63
2022/07/29 04:06:44;;;;;;;;;;;22.30;78.90;;;;;;5090518;28;19928;-63
2022/07/29 04:09:09;;;;;;;;;;;22.20;79.20;;;;;;5080916;28;19931;-66
2022/07/29 04:11:36;;;;;;;;;;;22.30;78.80;;;;;;5092309;28;19924;-68
2022/07/29 04:14:01;;;;;;;;;;;22.40;79.30;;;;;;5081319;28;20307;-63
2022/07/29 04:16:27;;;;;;;;;;;21.90;78.90;;;;;;5066832;28;19948;-67
2022/07/29 04:18:52;;;;;;;;;;;22.30;78.90;;;;;;5089331;28;19924;-67
2022/07/29 04:21:18;;;;;;;;;;;22.20;78.90;;;;;;5110634;28;19921;-67
2022/07/29 04:23:45;;;;;;;;;;;22.10;79.00;;;;;;5089131;28;19924;-67
2022/07/29 04:26:10;;;;;;;;;;;22.10;79.00;;;;;;5056418;28;19924;-68
2022/07/29 04:28:38;;;;;;;;;;;22.40;79.20;;;;;;5059198;28;20289;-67
2022/07/29 04:31:03;;;;;;;;;;;22.30;79.10;;;;;;5126455;27;20372;-67
2022/07/29 04:33:29;;;;;;;;;;;22.20;79.10;;;;;;5105568;28;19983;-67
2022/07/29 04:35:54;;;;;;;;;;;22.10;79.00;;;;;;5076159;28;19975;-67
2022/07/29 04:38:20;;;;;;;;;;;22.00;78.90;;;;;;5074024;28;19967;-67
2022/07/29 04:40:45;;;;;;;;;;;22.20;78.90;;;;;;5086648;28;19939;-67
2022/07/29 04:43:11;;;;;;;;;;;22.30;79.00;;;;;;5092729;28;19924;-67
2022/07/29 04:45:37;;;;;;;;;;;22.30;79.00;;;;;;5084052;28;19935;-67
2022/07/29 04:48:02;;;;;;;;;;;22.30;79.00;;;;;;5072294;28;20286;-67
2022/07/29 04:50:28;;;;;;;;;;;22.30;78.80;;;;;;5082909;28;19931;-67
2022/07/29 04:52:54;;;;;;;;;;;22.40;79.10;;;;;;5074271;28;20451;-64
2022/07/29 04:55:19;;;;;;;;;;;22.20;78.80;;;;;;5078881;28;19924;-63
2022/07/29 04:57:45;;;;;;;;;;;22.50;79.20;;;;;;5067221;28;19921;-63
2022/07/29 05:00:11;;;;;;;;;;;22.10;78.80;;;;;;5107054;28;19956;-63
2022/07/29 05:02:36;;;;;;;;;;;22.30;78.70;;;;;;5092931;28;19924;-63
2022/07/29 05:05:02;;;;;;;;;;;22.40;79.00;;;;;;5074617;28;20430;-64
2022/07/29 05:07:27;;;;;;;;;;;22.30;78.60;;;;;;5074144;28;19928;-65
2022/07/29 05:09:53;;;;;;;;;;;22.60;78.80;;;;;;5086705;28;19935;-62
2022/07/29 05:12:19;;;;;;;;;;;22.70;79.10;;;;;;5054268;28;19933;-63
2022/07/29 05:14:45;;;;;;;;;;;22.50;79.00;;;;;;5092085;28;19924;-63
2022/07/29 05:17:10;;;;;;;;;;;22.50;79.00;;;;;;5049072;28;19925;-62
2022/07/29 05:19:36;;;;;;;;;;;22.60;78.80;;;;;;5074526;28;20372;-62
2022/07/29 05:22:02;;;;;;;;;;;22.40;78.90;;;;;;5055935;28;20286;-63
2022/07/29 05:24:27;;;;;;;;;;;22.40;78.80;;;;;;5073740;28;20011;-63
2022/07/29 05:26:53;;;;;;;;;;;22.60;79.10;;;;;;5091558;28;19924;-63
2022/07/29 05:29:19;;;;;;;;;;;22.70;78.20;;;;;;5088594;28;19925;-63
2022/07/29 05:31:45;;;;;;;;;;;22.60;78.80;;;;;;5056212;28;19977;-63
2022/07/29 05:34:10;;;;;;;;;;;22.40;78.10;;;;;;5091237;28;20398;-63
2022/07/29 05:36:36;;;;;;;;;;;22.40;78.80;;;;;;5089555;28;19924;-63
2022/07/29 05:39:02;;;;;;;;;;;22.50;78.30;;;;;;5056879;28;20007;-64
2022/07/29 05:41:28;;;;;;;;;;;22.50;78.60;;;;;;5069589;28;19927;-63
2022/07/29 05:43:54;;;;;;;;;;;22.50;78.40;;;;;;5088737;28;19925;-63
2022/07/29 05:46:20;;;;;;;;;;;22.60;78.70;;;;;;5073642;28;19924;-62
2022/07/29 05:48:45;;;;;;;;;;;22.30;78.40;;;;;;5075353;28;20412;-62
2022/07/29 05:51:11;;;;;;;;;;;22.40;78.40;;;;;;5084870;28;19950;-62
2022/07/29 05:53:37;;;;;;;;;;;22.50;78.50;;;;;;5079372;28;19932;-63
2022/07/29 05:56:03;;;;;;;;;;;22.60;78.50;;;;;;5055604;28;19924;-62
2022/07/29 05:58:28;;;;;;;;;;;22.20;78.50;;;;;;5089437;28;19959;-62
2022/07/29 06:00:58;;;;;;;;;;;22.60;78.30;;;;;;5058367;28;19920;-62
2022/07/29 06:03:24;;;;;;;;;;;22.90;78.30;;;;;;5055571;28;20364;-62
2022/07/29 06:05:50;;;;;;;;;;;22.70;78.50;;;;;;5068131;28;19920;-64
2022/07/29 06:08:16;;;;;;;;;;;22.90;78.20;;;;;;5054129;28;20026;-63
2022/07/29 06:10:42;;;;;;;;;;;22.50;77.90;;;;;;5071924;28;20461;-63
2022/07/29 06:13:08;;;;;;;;;;;22.80;77.70;;;;;;5084246;28;20026;-63
2022/07/29 06:15:33;;;;;;;;;;;23.10;78.10;;;;;;5107153;28;20351;-63
2022/07/29 06:17:59;;;;;;;;;;;22.90;77.90;;;;;;5088816;28;19928;-63
2022/07/29 06:20:25;;;;;;;;;;;22.80;77.60;;;;;;5096569;28;19942;-63
2022/07/29 06:22:51;;;;;;;;;;;23.00;78.00;;;;;;5074543;28;20301;-63
2022/07/29 06:25:16;;;;;;;;;;;22.60;77.80;;;;;;5078638;28;19973;-63
2022/07/29 06:27:42;;;;;;;;;;;22.70;77.60;;;;;;5095375;28;19955;-63
2022/07/29 06:30:07;;;;;;;;;;;23.00;77.80;;;;;;5094267;28;19947;-62
2022/07/29 06:32:33;;;;;;;;;;;23.00;77.50;;;;;;5076015;28;20305;-62
2022/07/29 06:34:59;;;;;;;;;;;22.80;77.60;;;;;;5094880;28;19988;-62
2022/07/29 06:37:24;;;;;;;;;;;23.00;77.70;;;;;;5095705;28;19920;-63
2022/07/29 06:40:59;;;;;;;;;;;23.10;77.70;;;;;;5092340;28;21925;-62
2022/07/29 06:42:36;;;;;;;;;;;23.00;78.60;;;;;;5076695;28;19928;-63
2022/07/29 06:45:01;;;;;;;;;;;23.00;77.70;;;;;;5115213;27;19947;-66
2022/07/29 06:47:27;;;;;;;;;;;22.70;77.70;;;;;;5098614;28;20023;-66
2022/07/29 06:49:52;;;;;;;;;;;22.70;77.50;;;;;;5107353;28;19971;-62
2022/07/29 06:52:18;;;;;;;;;;;23.00;77.70;;;;;;5088146;28;19924;-62
2022/07/29 06:54:47;;;;;;;;;;;22.70;77.60;;;;;;5090647;28;19920;-62
2022/07/29 06:57:13;;;;;;;;;;;23.10;78.00;;;;;;5099405;28;20343;-63
2022/07/29 06:59:39;;;;;;;;;;;22.90;77.70;;;;;;5081679;28;19965;-66
2022/07/29 07:02:04;;;;;;;;;;;22.90;77.90;;;;;;5083493;28;19924;-69
2022/07/29 07:04:30;;;;;;;;;;;22.80;77.50;;;;;;5102099;28;19928;-66
2022/07/29 07:06:56;;;;;;;;;;;23.00;77.40;;;;;;5071207;28;19983;-65
2022/07/29 07:09:21;;;;;;;;;;;22.60;77.20;;;;;;5075946;28;19924;-66
2022/07/29 07:11:47;;;;;;;;;;;22.90;77.60;;;;;;5099875;28;19932;-62
2022/07/29 07:14:13;;;;;;;;;;;22.80;77.50;;;;;;5109044;28;19931;-65
2022/07/29 07:16:38;;;;;;;;;;;23.00;77.80;;;;;;5065743;28;19924;-63
2022/07/29 07:19:04;;;;;;;;;;;23.00;77.40;;;;;;5072841;28;20010;-63
2022/07/29 07:21:30;;;;;;;;;;;22.90;77.70;;;;;;5111329;28;20400;-62
2022/07/29 07:23:55;;;;;;;;;;;22.60;77.20;;;;;;5092492;28;19928;-63
2022/07/29 07:26:22;;;;;;;;;;;22.80;77.60;;;;;;5062553;28;20282;-66
2022/07/29 07:28:52;;;;;;;;;;;23.00;76.90;;;;;;5095185;28;20420;-63
2022/07/29 07:31:18;;;;;;;;;;;22.90;77.30;;;;;;5095763;28;19967;-64
2022/07/29 07:33:44;;;;;;;;;;;23.00;77.50;;;;;;5093414;28;20016;-63
2022/07/29 07:36:10;;;;;;;;;;;23.10;77.60;;;;;;5089374;28;19972;-63
2022/07/29 07:38:35;;;;;;;;;;;23.10;77.30;;;;;;5074952;28;19924;-62
2022/07/29 07:41:01;;;;;;;;;;;23.20;77.40;;;;;;5083733;28;19964;-63
2022/07/29 07:43:27;;;;;;;;;;;23.10;77.30;;;;;;5076730;28;19928;-65
2022/07/29 07:45:52;;;;;;;;;;;23.10;77.00;;;;;;5093627;28;20035;-63
2022/07/29 07:48:18;;;;;;;;;;;23.20;77.40;;;;;;5061299;28;19931;-63
2022/07/29 07:50:44;;;;;;;;;;;23.30;77.20;;;;;;5089788;28;19924;-63
2022/07/29 07:53:09;;;;;;;;;;;23.00;77.30;;;;;;5123591;27;19932;-64
2022/07/29 07:55:39;;;;;;;;;;;23.00;77.30;;;;;;5091924;28;20391;-64
2022/07/29 07:58:05;;;;;;;;;;;23.40;77.80;;;;;;5063625;28;19924;-63
2022/07/29 08:00:32;;;;;;;;;;;23.30;77.30;;;;;;5058056;28;20362;-68
2022/07/29 08:02:59;;;;;;;;;;;23.10;76.70;;;;;;5088931;28;20029;-64
2022/07/29 08:05:24;;;;;;;;;;;23.00;76.80;;;;;;5079299;28;19952;-64
2022/07/29 08:07:50;;;;;;;;;;;23.00;76.90;;;;;;5108430;28;19925;-67
2022/07/29 08:10:51;;;;;;;;;;;23.00;76.60;;;;;;5099284;28;19925;-65
2022/07/29 08:13:11;;;;;;;;;;;23.40;77.10;;;;;;5068469;28;19923;-64
2022/07/29 08:15:38;;;;;;;;;;;24.70;77.90;;;;;;5072985;28;19928;-64
2022/07/29 08:18:04;;;;;;;;;;;23.00;76.80;;;;;;5114082;27;19919;-66
2022/07/29 08:20:31;;;;;;;;;;;23.50;76.70;;;;;;5068989;28;20301;-64
2022/07/29 08:22:57;;;;;;;;;;;23.30;76.60;;;;;;5113309;27;19930;-65
2022/07/29 08:25:23;;;;;;;;;;;23.30;76.40;;;;;;5094307;28;19924;-64
2022/07/29 08:27:48;;;;;;;;;;;23.50;76.50;;;;;;5091484;28;19930;-64
2022/07/29 08:30:14;;;;;;;;;;;23.20;76.00;;;;;;5107777;28;19931;-66
2022/07/29 08:32:40;;;;;;;;;;;23.30;76.40;;;;;;5082801;28;19931;-64
2022/07/29 08:35:05;;;;;;;;;;;23.50;76.20;;;;;;5093119;28;19924;-71
2022/07/29 08:37:31;;;;;;;;;;;23.40;76.10;;;;;;5075863;28;20378;-64
2022/07/29 08:39:57;;;;;;;;;;;23.30;75.90;;;;;;5080342;28;19934;-65
2022/07/29 08:42:23;;;;;;;;;;;23.40;76.20;;;;;;5089482;28;19931;-68
2022/07/29 08:44:48;;;;;;;;;;;23.60;76.20;;;;;;5081069;28;19924;-64
2022/07/29 08:47:17;;;;;;;;;;;23.20;76.10;;;;;;5053868;28;19978;-65
2022/07/29 08:49:44;;;;;;;;;;;23.40;75.10;;;;;;5050622;28;19964;-64
2022/07/29 08:52:11;;;;;;;;;;;23.30;76.10;;;;;;5050020;28;20012;-65
2022/07/29 08:54:37;;;;;;;;;;;23.60;76.30;;;;;;5047013;28;19932;-64
2022/07/29 08:57:02;;;;;;;;;;;23.50;76.00;;;;;;5035926;28;19924;-66
2022/07/29 08:59:28;;;;;;;;;;;23.60;75.60;;;;;;5043448;28;19971;-64
2022/07/29 09:01:54;;;;;;;;;;;23.50;75.80;;;;;;5069364;28;19968;-64
2022/07/29 09:04:19;;;;;;;;;;;23.50;75.60;;;;;;5049394;28;19925;-64
2022/07/29 09:06:46;;;;;;;;;;;23.50;75.90;;;;;;5034759;28;19924;-64
2022/07/29 09:09:13;;;;;;;;;;;23.50;76.10;;;;;;5052262;28;19925;-63
2022/07/29 09:11:39;;;;;;;;;;;23.60;75.90;;;;;;5053634;28;19925;-63
2022/07/29 09:14:05;;;;;;;;;;;23.40;75.90;;;;;;5047059;28;19958;-63
2022/07/29 09:34:00;;;;;;;;;;;23.50;74.40;;;;;;5053463;28;20403;-64
2022/07/29 09:50:23;;;;;;;;;;;23.60;74.70;;;;;;5053325;28;19927;-64
2022/07/29 09:52:49;;;;;;;;;;;23.60;75.90;;;;;;5070408;28;19956;-65
2022/07/29 09:55:15;;;;;;;;;;;23.30;75.90;;;;;;5072848;28;19928;-65
2022/07/29 09:57:41;;;;;;;;;;;23.60;75.80;;;;;;5062846;28;20355;-66
2022/07/29 10:00:11;;;;;;;;;;;23.70;76.20;;;;;;5052229;28;19936;-65
2022/07/29 10:02:37;;;;;;;;;;;23.70;75.00;;;;;;5043884;28;19925;-65
2022/07/29 10:05:03;;;;;;;;;;;23.70;76.30;;;;;;5037881;28;19925;-64
2022/07/29 10:07:48;;;;;;;;;;;23.70;76.10;;;;;;5044149;28;19924;-63
2022/07/29 10:10:41;;;;;;;;;;;23.40;74.70;;;;;;5072259;28;19967;-64
2022/07/29 10:13:08;;;;;;;;;;;23.60;74.90;;;;;;5045874;28;19955;-65
2022/07/29 10:15:38;;;;;;;;;;;23.70;76.00;;;;;;5049723;28;19924;-64
2022/07/29 10:18:04;;;;;;;;;;;23.60;76.10;;;;;;5060438;28;19936;-64
2022/07/29 10:20:29;;;;;;;;;;;23.70;76.00;;;;;;5047361;28;19925;-64
2022/07/29 10:22:55;;;;;;;;;;;23.70;75.80;;;;;;5052474;28;19925;-64
2022/07/29 10:25:21;;;;;;;;;;;23.90;76.00;;;;;;5054701;28;19925;-65
2022/07/29 10:27:47;;;;;;;;;;;23.80;75.60;;;;;;5047990;28;19936;-68
2022/07/29 10:30:14;;;;;;;;;;;23.80;75.70;;;;;;5047579;28;20275;-67
2022/07/29 10:32:46;;;;;;;;;;;23.70;75.40;;;;;;5035413;28;19925;-68
2022/07/29 10:35:11;;;;;;;;;;;23.60;73.80;;;;;;5051889;28;19921;-68
2022/07/29 10:37:46;;;;;;;;;;;23.80;74.90;;;;;;5066965;28;19931;-64
2022/07/29 10:43:27;;;;;;;;;;;24.00;74.00;;;;;;5051956;28;19948;-65
2022/07/29 10:45:57;;;;;;;;;;;23.80;74.00;;;;;;5034837;28;19926;-64
2022/07/29 10:48:23;;;;;;;;;;;23.90;74.00;;;;;;5038657;28;20034;-64
2022/07/29 10:50:55;;;;;;;;;;;24.20;75.20;;;;;;5051432;28;19976;-65
2022/07/29 10:53:23;;;;;;;;;;;23.90;73.80;;;;;;5054521;28;19928;-64
2022/07/29 10:55:50;;;;;;;;;;;23.80;75.00;;;;;;5071404;28;20026;-64
2022/07/29 10:58:23;;;;;;;;;;;23.90;74.80;;;;;;5054462;28;19932;-64
2022/07/29 11:00:49;;;;;;;;;;;23.80;73.20;;;;;;5044885;28;19988;-64
2022/07/29 11:03:34;;;;;;;;;;;24.00;74.70;;;;;;5050561;28;19952;-65
2022/07/29 11:05:59;;;;;;;;;;;24.00;73.50;;;;;;5047496;28;20011;-64
2022/07/29 11:08:25;;;;;;;;;;;24.00;74.10;;;;;;5054451;28;20015;-64
2022/07/29 11:10:51;;;;;;;;;;;24.00;74.70;;;;;;5049378;28;19924;-63
2022/07/29 11:13:37;;;;;;;;;;;24.10;75.10;;;;;;5034753;28;20284;-64
2022/07/29 11:16:02;;;;;;;;;;;24.00;75.00;;;;;;5034389;28;19956;-64
2022/07/29 11:18:29;;;;;;;;;;;23.90;74.60;;;;;;5034431;28;20421;-64
2022/07/29 11:20:54;;;;;;;;;;;24.00;75.10;;;;;;5050686;28;20366;-65
2022/07/29 11:23:23;;;;;;;;;;;23.90;74.70;;;;;;5065877;28;19924;-64
2022/07/29 11:26:08;;;;;;;;;;;24.00;73.70;;;;;;5055706;28;19925;-64
2022/07/29 11:28:34;;;;;;;;;;;24.00;73.60;;;;;;5053909;28;19924;-64
2022/07/29 11:30:59;;;;;;;;;;;24.00;74.70;;;;;;5070268;28;19924;-64
2022/07/29 11:33:29;;;;;;;;;;;24.10;74.50;;;;;;5040300;28;19932;-69
2022/07/29 11:36:10;;;;;;;;;;;24.00;73.30;;;;;;5034254;28;20276;-68
2022/07/29 11:38:36;;;;;;;;;;;24.10;73.30;;;;;;5051362;28;19933;-67
2022/07/29 11:41:17;;;;;;;;;;;24.40;74.70;;;;;;5028496;28;20294;-68
2022/07/29 11:44:01;;;;;;;;;;;24.40;73.40;;;;;;5044049;28;19932;-69
2022/07/29 11:46:49;;;;;;;;;;;24.30;73.30;;;;;;5043581;28;19995;-68
2022/07/29 11:49:24;;;;;;;;;;;24.20;73.00;;;;;;5035902;28;19932;-70
2022/07/29 11:51:53;;;;;;;;;;;24.20;73.00;;;;;;5050708;28;19925;-64
2022/07/29 11:54:23;;;;;;;;;;;24.20;73.10;;;;;;5056870;28;19921;-64
2022/07/29 11:56:49;;;;;;;;;;;24.00;74.40;;;;;;5042743;28;19925;-64
2022/07/29 11:59:14;;;;;;;;;;;24.20;74.10;;;;;;5038215;28;19925;-71
2022/07/29 12:01:51;;;;;;;;;;;24.10;74.00;;;;;;5049840;28;19947;-70
2022/07/29 12:04:17;;;;;;;;;;;24.50;74.60;;;;;;5044031;28;19983;-63
2022/07/29 12:06:42;;;;;;;;;;;24.20;74.40;;;;;;5053127;28;19976;-63
2022/07/29 12:09:10;;;;;;;;;;;24.30;74.10;;;;;;5046963;28;20209;-64
2022/07/29 12:11:36;;;;;;;;;;;24.40;74.30;;;;;;5041185;28;19924;-63
2022/07/29 12:14:02;;;;;;;;;;;24.50;74.50;;;;;;5042441;28;19925;-64
2022/07/29 12:16:37;;;;;;;;;;;24.20;74.70;;;;;;5049617;28;19952;-63
2022/07/29 12:19:03;;;;;;;;;;;24.20;73.50;;;;;;5049917;28;20268;-63
2022/07/29 12:21:29;;;;;;;;;;;24.40;74.60;;;;;;5035091;28;19947;-63
2022/07/29 12:23:55;;;;;;;;;;;24.60;75.10;;;;;;5069315;28;19925;-65
2022/07/29 12:26:21;;;;;;;;;;;24.60;75.10;;;;;;5052936;28;19931;-62
2022/07/29 12:28:46;;;;;;;;;;;24.40;74.80;;;;;;5054281;28;19928;-63
2022/07/29 12:31:15;;;;;;;;;;;24.40;74.70;;;;;;5038912;28;20454;-63
2022/07/29 12:33:41;;;;;;;;;;;24.30;73.70;;;;;;5045135;28;19955;-63
2022/07/29 12:36:07;;;;;;;;;;;24.30;75.10;;;;;;5054226;28;19925;-63
2022/07/29 12:38:36;;;;;;;;;;;24.50;75.70;;;;;;5069449;28;19925;-62
2022/07/29 12:41:02;;;;;;;;;;;24.30;75.20;;;;;;5052886;28;20283;-63
2022/07/29 12:43:27;;;;;;;;;;;24.50;75.10;;;;;;5051179;28;19925;-63
2022/07/29 12:45:54;;;;;;;;;;;24.40;75.00;;;;;;5054173;28;19995;-63
2022/07/29 12:48:34;;;;;;;;;;;24.50;75.40;;;;;;5038946;28;19925;-62
2022/07/29 12:51:01;;;;;;;;;;;24.40;74.00;;;;;;5034271;28;19932;-67
2022/07/29 12:53:26;;;;;;;;;;;24.50;75.60;;;;;;5048926;28;19929;-63
2022/07/29 12:55:53;;;;;;;;;;;24.40;75.30;;;;;;5052538;28;20028;-63
2022/07/29 12:58:28;;;;;;;;;;;24.20;75.50;;;;;;5059006;28;19979;-63
2022/07/29 13:01:00;;;;;;;;;;;24.40;74.20;;;;;;5034094;28;20007;-63
2022/07/29 13:03:25;;;;;;;;;;;24.70;74.40;;;;;;5033767;28;19968;-63
2022/07/29 13:05:51;;;;;;;;;;;24.30;75.50;;;;;;5034607;28;19971;-63
2022/07/29 13:08:20;;;;;;;;;;;24.50;75.50;;;;;;5034326;28;19929;-62
2022/07/29 13:10:46;;;;;;;;;;;24.40;75.80;;;;;;5048953;28;20036;-63
2022/07/29 13:13:12;;;;;;;;;;;24.60;75.80;;;;;;5049251;28;19929;-72
2022/07/29 13:15:42;;;;;;;;;;;24.40;76.00;;;;;;5033515;28;19921;-63
2022/07/29 13:18:27;;;;;;;;;;;24.20;74.60;;;;;;5033642;28;20442;-62
2022/07/29 13:20:52;;;;;;;;;;;24.30;74.70;;;;;;5049740;28;19925;-63
2022/07/29 13:23:18;;;;;;;;;;;24.60;76.10;;;;;;5033869;28;19968;-63
2022/07/29 13:25:43;;;;;;;;;;;24.40;76.20;;;;;;5033778;28;20252;-68
2022/07/29 13:28:11;;;;;;;;;;;24.40;76.20;;;;;;5037884;28;20282;-71
2022/07/29 13:30:37;;;;;;;;;;;24.30;76.20;;;;;;5048294;28;19980;-66
2022/07/29 13:33:03;;;;;;;;;;;24.40;76.50;;;;;;5041419;28;19925;-67
2022/07/29 13:35:29;;;;;;;;;;;24.40;76.30;;;;;;5040492;28;20397;-63
2022/07/29 13:37:55;;;;;;;;;;;24.30;76.50;;;;;;5054249;28;19924;-63
2022/07/29 13:40:20;;;;;;;;;;;24.60;76.50;;;;;;5036625;28;20003;-62
2022/07/29 13:42:46;;;;;;;;;;;24.50;76.80;;;;;;5037740;28;19936;-62
2022/07/29 13:45:12;;;;;;;;;;;24.30;76.60;;;;;;5052921;28;19954;-62
2022/07/29 13:47:37;;;;;;;;;;;24.10;76.60;;;;;;5037574;28;19925;-63
2022/07/29 13:50:03;;;;;;;;;;;24.20;76.80;;;;;;5036094;28;19925;-62
2022/07/29 13:52:29;;;;;;;;;;;24.20;76.80;;;;;;5052259;28;20293;-62
2022/07/29 13:54:55;;;;;;;;;;;24.10;76.80;;;;;;5054049;28;19931;-62
2022/07/29 13:57:20;;;;;;;;;;;24.20;77.00;;;;;;5036661;28;20446;-62
2022/07/29 13:59:46;;;;;;;;;;;24.20;77.00;;;;;;5052292;28;19977;-63
2022/07/29 14:02:14;;;;;;;;;;;24.20;77.00;;;;;;5038215;28;20335;-63
2022/07/29 14:04:40;;;;;;;;;;;24.10;77.10;;;;;;5035696;28;20493;-63
2022/07/29 14:07:06;;;;;;;;;;;24.20;77.10;;;;;;5036964;28;20040;-63
2022/07/29 14:09:31;;;;;;;;;;;24.10;77.10;;;;;;5041346;28;19987;-62
2022/07/29 14:11:57;;;;;;;;;;;24.10;76.80;;;;;;5037775;28;19971;-62
2022/07/29 14:14:23;;;;;;;;;;;24.00;77.20;;;;;;5055119;28;19925;-63
2022/07/29 14:16:48;;;;;;;;;;;24.00;77.00;;;;;;5055547;28;19948;-63
2022/07/29 14:19:14;;;;;;;;;;;24.00;77.40;;;;;;5037796;28;19929;-62
2022/07/29 14:21:40;;;;;;;;;;;24.10;76.90;;;;;;5056564;28;19927;-61
2022/07/29 14:24:06;;;;;;;;;;;24.10;77.50;;;;;;5049349;28;19935;-68
2022/07/29 14:26:31;;;;;;;;;;;24.20;77.50;;;;;;5046518;28;20343;-61
2022/07/29 14:28:57;;;;;;;;;;;24.40;78.00;;;;;;5052849;28;20375;-62
2022/07/29 14:31:22;;;;;;;;;;;24.40;77.80;;;;;;5043244;28;19925;-62
2022/07/29 14:33:48;;;;;;;;;;;24.00;77.60;;;;;;5056224;28;19925;-62
2022/07/29 14:36:14;;;;;;;;;;;24.20;77.60;;;;;;5067755;28;19929;-66
2022/07/29 14:38:40;;;;;;;;;;;24.00;77.60;;;;;;5055561;28;19948;-62
2022/07/29 14:41:06;;;;;;;;;;;24.10;77.70;;;;;;5055465;28;19959;-63
2022/07/29 14:43:31;;;;;;;;;;;24.40;78.00;;;;;;5029712;28;20302;-65
2022/07/29 14:45:57;;;;;;;;;;;24.20;77.60;;;;;;5038954;28;19925;-63
2022/07/29 14:48:23;;;;;;;;;;;24.20;77.60;;;;;;5056072;28;19924;-63
2022/07/29 14:50:48;;;;;;;;;;;24.30;77.80;;;;;;5056090;28;19925;-62
2022/07/29 14:53:14;;;;;;;;;;;24.00;77.70;;;;;;5055229;28;19920;-62